Time;durP1;ratioP1;P1;durP2;ratioP2;P2;SDS_P1;SDS_P2;PMS_P1;PMS_P2;Temp;Humidity;BMP_temperature;BMP_pressure;BME280_temperature;BME280_humidity;BME280_pressure;Samples;Min_cycle;Max_cycle;Signal;HPM_P1;HPM_P2
2022/03/28 00:01:18;;;;;;;7.03;3.13;;;;;;;11.09;47.33;100107.09;6131107;23;20213;-87
2022/03/28 00:03:44;;;;;;;9.47;3.23;;;;;;;11.05;47.74;100100.28;6156784;23;20175;-87
2022/03/28 00:06:10;;;;;;;6.97;3.00;;;;;;;10.92;48.13;100110.41;6156651;23;20483;-87
2022/03/28 00:08:38;;;;;;;7.43;3.40;;;;;;;10.73;48.83;100125.13;6156723;23;20150;-87
2022/03/28 00:11:06;;;;;;;11.27;4.33;;;;;;;10.73;49.19;100121.63;6131597;23;20181;-88
2022/03/28 00:13:33;;;;;;;8.20;3.07;;;;;;;10.72;48.98;100117.28;6156605;23;20154;-88
2022/03/28 00:15:59;;;;;;;7.33;3.03;;;;;;;10.34;50.60;100116.94;6156642;23;20163;-87
2022/03/28 00:18:24;;;;;;;7.70;2.40;;;;;;;9.98;52.47;100117.34;6156981;23;20148;-86
2022/03/28 00:20:53;;;;;;;6.50;2.63;;;;;;;9.71;53.99;100108.66;6156946;23;20564;-85
2022/03/28 00:23:22;;;;;;;8.00;3.37;;;;;;;9.46;54.78;100113.84;6156647;23;20569;-85
2022/03/28 00:25:48;;;;;;;13.17;3.03;;;;;;;9.45;55.20;100113.91;6156536;23;20175;-86
2022/03/28 00:28:14;;;;;;;6.93;2.87;;;;;;;9.31;56.39;100123.94;6156625;23;20159;-86
2022/03/28 00:30:40;;;;;;;7.53;3.27;;;;;;;9.31;56.62;100113.47;6156837;23;20154;-86
2022/03/28 00:33:06;;;;;;;9.13;3.30;;;;;;;9.35;56.88;100121.22;6156505;23;20266;-87
2022/03/28 00:35:32;;;;;;;5.33;2.90;;;;;;;9.42;57.00;100116.63;6156508;23;20192;-87
2022/03/28 00:37:57;;;;;;;5.43;3.07;;;;;;;9.51;57.04;100129.41;6156355;23;20499;-87
2022/03/28 00:40:27;;;;;;;5.63;2.90;;;;;;;9.46;57.71;100123.47;6156416;23;20148;-86
2022/03/28 00:42:53;;;;;;;13.67;3.93;;;;;;;9.56;57.43;100114.41;6156789;23;20209;-87
2022/03/28 00:45:19;;;;;;;8.80;2.87;;;;;;;9.66;57.35;100115.81;6156367;23;20537;-88
2022/03/28 00:47:45;;;;;;;6.93;3.23;;;;;;;9.72;57.09;100116.47;6130565;23;20187;-87
2022/03/28 00:50:10;;;;;;;9.27;3.57;;;;;;;9.80;56.95;100118.84;6156712;23;20478;-87
2022/03/28 00:52:38;;;;;;;6.67;3.00;;;;;;;9.87;56.05;100117.72;6157028;23;20153;-87
2022/03/28 00:55:05;;;;;;;7.50;4.23;;;;;;;9.93;55.66;100112.28;6156253;23;20224;-88
2022/03/28 00:57:31;;;;;;;7.23;3.57;;;;;;;9.99;55.01;100124.28;6156201;23;20147;-87
2022/03/28 00:59:58;;;;;;;7.93;3.43;;;;;;;9.97;55.10;100126.97;6130535;23;20485;-88
2022/03/28 01:02:23;;;;;;;14.37;3.07;;;;;;;9.87;55.38;100129.06;6156202;23;20159;-87
2022/03/28 01:04:50;;;;;;;5.73;2.83;;;;;;;9.92;55.69;100128.91;6156248;23;20160;-87
2022/03/28 01:07:17;;;;;;;7.63;3.87;;;;;;;9.98;55.82;100133.94;6156011;23;20205;-87
2022/03/28 01:09:43;;;;;;;10.23;3.47;;;;;;;10.03;55.77;100125.91;6130367;23;20179;-87
2022/03/28 01:12:10;;;;;;;12.37;4.27;;;;;;;9.97;56.00;100116.50;6156153;23;20542;-87
2022/03/28 01:14:36;;;;;;;18.90;4.53;;;;;;;9.86;56.98;100121.22;6156790;23;20226;-87
2022/03/28 01:19:53;;;;;;;7.23;3.17;;;;;;;9.81;56.96;100115.31;6156547;23;20628;-87
2022/03/28 01:22:18;;;;;;;9.63;4.03;;;;;;;9.75;57.42;100116.38;6130358;23;20180;-88
2022/03/28 01:24:44;;;;;;;7.50;3.20;;;;;;;9.75;57.84;100120.72;6155889;23;20545;-87
2022/03/28 01:27:10;;;;;;;10.60;3.70;;;;;;;9.80;57.70;100121.47;6155816;23;20202;-87
2022/03/28 01:29:35;;;;;;;8.13;3.17;;;;;;;9.83;57.04;100114.34;6156313;23;20147;-87
2022/03/28 01:32:02;;;;;;;6.57;3.53;;;;;;;9.80;57.44;100113.63;6131306;23;20221;-86
2022/03/28 01:34:28;;;;;;;5.70;2.60;;;;;;;9.81;57.34;100126.63;6156347;23;20148;-86
2022/03/28 01:36:53;;;;;;;9.70;4.03;;;;;;;9.77;56.78;100125.00;6125370;23;20180;-87
2022/03/28 01:39:19;;;;;;;12.57;4.23;;;;;;;9.75;57.30;100124.22;6125645;23;20151;-87
2022/03/28 01:41:46;;;;;;;9.17;3.87;;;;;;;9.73;57.36;100125.19;6127097;23;20152;-87
2022/03/28 01:44:12;;;;;;;9.23;3.90;;;;;;;9.71;57.56;100134.84;6149820;23;20162;-87
2022/03/28 01:46:44;;;;;;;11.97;3.97;;;;;;;9.71;57.26;100135.72;6126383;23;20181;-87
2022/03/28 01:49:10;;;;;;;4.73;2.70;;;;;;;9.65;57.06;100142.91;6125247;23;20161;-87
2022/03/28 01:51:36;;;;;;;17.30;3.73;;;;;;;9.58;57.64;100138.78;6125207;23;20163;-87
2022/03/28 01:54:01;;;;;;;8.03;3.17;;;;;;;9.68;57.23;100129.72;6126381;23;20467;-87
2022/03/28 01:56:27;;;;;;;6.17;2.80;;;;;;;9.66;57.12;100136.75;6125521;23;20163;-86
2022/03/28 01:58:53;;;;;;;12.40;3.53;;;;;;;9.60;57.25;100142.19;6126700;23;20156;-86
2022/03/28 02:01:18;;;;;;;8.33;3.83;;;;;;;9.51;58.15;100130.25;6149700;23;20166;-86
2022/03/28 02:03:44;;;;;;;7.13;3.60;;;;;;;9.24;58.79;100132.00;6126330;23;20158;-86
2022/03/28 02:06:09;;;;;;;10.90;4.53;;;;;;;9.06;59.97;100137.81;6126238;23;20179;-86
2022/03/28 02:08:35;;;;;;;8.23;3.40;;;;;;;9.04;60.67;100142.22;6125500;23;20156;-86
2022/03/28 02:11:01;;;;;;;8.60;2.87;;;;;;;9.07;61.35;100146.50;6125107;23;20238;-87
2022/03/28 02:13:26;;;;;;;12.73;3.47;;;;;;;8.96;62.01;100149.41;6127298;23;20183;-87
2022/03/28 02:15:51;;;;;;;7.17;3.53;;;;;;;8.85;61.58;100154.13;6149597;23;20160;-87
2022/03/28 02:18:17;;;;;;;17.93;4.77;;;;;;;8.88;61.25;100153.19;6126614;23;20223;-86
2022/03/28 02:20:42;;;;;;;10.73;4.40;;;;;;;8.84;60.80;100155.03;6126643;23;20230;-87
2022/03/28 02:23:08;;;;;;;6.17;3.30;;;;;;;8.74;60.54;100164.03;6126243;23;20216;-87
2022/03/28 02:25:37;;;;;;;7.20;3.43;;;;;;;8.66;61.07;100158.19;6125292;23;20163;-87
2022/03/28 02:28:03;;;;;;;13.00;5.27;;;;;;;8.82;60.34;100154.22;6125372;23;20151;-87
2022/03/28 02:30:30;;;;;;;11.60;4.17;;;;;;;8.84;59.47;100159.41;6126543;23;20156;-87
2022/03/28 02:32:56;;;;;;;5.47;3.00;;;;;;;8.77;59.83;100163.97;6126537;23;20206;-86
2022/03/28 02:35:22;;;;;;;6.37;3.23;;;;;;;8.81;59.66;100164.72;6124996;23;20168;-86
2022/03/28 02:37:48;;;;;;;17.40;3.70;;;;;;;8.80;59.38;100171.72;6125674;23;20205;-87
2022/03/28 02:40:13;;;;;;;9.27;3.60;;;;;;;8.74;58.86;100169.28;6152887;23;20155;-86
2022/03/28 02:42:39;;;;;;;8.70;3.50;;;;;;;8.69;59.60;100172.91;6128129;23;20453;-87
2022/03/28 02:45:05;;;;;;;12.83;4.50;;;;;;;8.69;59.50;100171.16;6151541;23;20166;-87
2022/03/28 02:47:31;;;;;;;11.10;4.30;;;;;;;8.80;59.40;100176.94;6151397;23;20211;-87
2022/03/28 02:49:56;;;;;;;5.20;3.03;;;;;;;8.83;58.69;100176.00;6128107;23;20156;-86
2022/03/28 02:52:22;;;;;;;6.50;3.80;;;;;;;8.76;58.52;100169.22;6128415;23;20155;-86
2022/03/28 02:54:48;;;;;;;7.07;3.47;;;;;;;8.71;59.20;100173.72;6128333;23;20243;-86
2022/03/28 02:57:15;;;;;;;7.80;3.70;;;;;;;8.75;59.20;100178.84;6127984;23;20639;-86
2022/03/28 02:59:41;;;;;;;6.87;3.43;;;;;;;8.64;59.79;100170.44;6127478;23;20156;-86
2022/03/28 03:02:06;;;;;;;10.57;3.57;;;;;;;8.61;59.36;100174.00;6126776;23;20481;-86
2022/03/28 03:04:33;;;;;;;6.13;2.77;;;;;;;8.58;59.21;100175.81;6126747;23;20163;-86
2022/03/28 03:06:59;;;;;;;7.33;3.47;;;;;;;8.45;59.58;100172.69;6151212;23;20183;-86
2022/03/28 03:09:24;;;;;;;7.00;2.60;;;;;;;8.46;60.41;100181.41;6128894;23;20156;-86
2022/03/28 03:11:50;;;;;;;11.57;3.37;;;;;;;8.47;60.08;100177.88;6127885;23;20186;-86
2022/03/28 03:14:16;;;;;;;8.33;3.63;;;;;;;8.56;59.17;100177.63;6128193;23;20210;-86
2022/03/28 03:16:41;;;;;;;7.17;4.17;;;;;;;8.59;59.43;100170.53;6127817;23;20504;-86
2022/03/28 03:19:07;;;;;;;7.40;3.20;;;;;;;8.55;60.47;100174.16;6151237;23;20484;-86
2022/03/28 03:21:33;;;;;;;6.87;3.03;;;;;;;8.41;60.28;100176.28;6127015;23;20562;-86
2022/03/28 03:23:58;;;;;;;11.80;4.20;;;;;;;8.35;60.25;100173.84;6128110;23;20147;-86
2022/03/28 03:26:23;;;;;;;8.57;3.70;;;;;;;8.28;60.84;100174.06;6126468;23;20275;-86
2022/03/28 03:28:49;;;;;;;6.47;2.90;;;;;;;8.22;61.17;100176.78;6127758;23;20247;-86
2022/03/28 03:31:14;;;;;;;11.40;3.83;;;;;;;8.17;61.15;100176.06;6127727;23;20147;-86
2022/03/28 03:33:40;;;;;;;7.37;3.20;;;;;;;8.10;61.94;100182.34;6151106;23;20155;-86
2022/03/28 03:36:06;;;;;;;17.37;4.93;;;;;;;8.07;62.49;100179.81;6130063;23;20223;-86
2022/03/28 03:38:32;;;;;;;9.10;4.60;;;;;;;8.07;62.24;100182.44;6131451;23;20155;-86
2022/03/28 03:40:57;;;;;;;6.63;3.33;;;;;;;8.12;62.13;100177.94;6157435;23;20158;-86
2022/03/28 03:43:25;;;;;;;17.60;4.07;;;;;;;8.17;61.74;100181.28;6131334;23;20154;-87
2022/03/28 03:45:50;;;;;;;10.43;4.70;;;;;;;8.18;61.95;100183.84;6131238;23;20262;-86
2022/03/28 03:48:16;;;;;;;10.27;4.70;;;;;;;8.19;62.47;100184.72;6156752;23;20626;-86
2022/03/28 03:50:41;;;;;;;8.70;4.13;;;;;;;8.17;61.96;100186.50;6157380;23;20151;-86
2022/03/28 03:53:08;;;;;;;11.07;3.80;;;;;;;8.23;61.92;100191.59;6157684;23;20500;-86
2022/03/28 03:55:33;;;;;;;10.23;4.93;;;;;;;8.22;61.61;100195.06;6156942;23;20147;-86
2022/03/28 03:57:59;;;;;;;7.47;4.43;;;;;;;8.26;61.72;100202.78;6131201;23;20169;-86
2022/03/28 04:00:24;;;;;;;11.03;4.73;;;;;;;8.32;62.11;100200.06;6156892;23;20159;-86
2022/03/28 04:02:50;;;;;;;14.00;5.50;;;;;;;8.33;62.44;100203.53;6155706;23;20626;-86
2022/03/28 04:05:17;;;;;;;12.13;5.40;;;;;;;8.31;62.83;100200.06;6131100;23;20168;-86
2022/03/28 04:07:42;;;;;;;7.57;4.17;;;;;;;8.25;63.33;100206.31;6130986;23;20183;-86
2022/03/28 04:10:08;;;;;;;8.40;4.63;;;;;;;8.21;64.10;100215.13;6157112;23;20576;-86
2022/03/28 04:12:34;;;;;;;9.23;4.10;;;;;;;8.22;64.32;100205.53;6157442;23;20507;-86
2022/03/28 04:15:00;;;;;;;14.77;3.97;;;;;;;8.30;63.65;100204.47;6131004;23;20159;-86
2022/03/28 04:17:28;;;;;;;8.97;5.10;;;;;;;8.26;63.99;100208.00;6156745;23;20157;-86
2022/03/28 04:19:54;;;;;;;8.30;4.03;;;;;;;8.31;63.41;100205.31;6157041;23;20152;-86
2022/03/28 04:22:19;;;;;;;6.27;3.33;;;;;;;8.34;64.17;100207.84;6130905;23;20159;-86
2022/03/28 04:24:45;;;;;;;10.73;4.50;;;;;;;8.37;64.05;100215.59;6156588;23;20642;-85
2022/03/28 04:27:11;;;;;;;7.00;3.77;;;;;;;8.37;64.65;100220.81;6156898;23;20194;-86
2022/03/28 04:29:37;;;;;;;6.73;4.17;;;;;;;8.45;64.52;100213.66;6155409;23;20488;-86
2022/03/28 04:32:02;;;;;;;11.13;4.80;;;;;;;8.42;64.57;100211.97;6155363;23;20159;-87
2022/03/28 04:34:35;;;;;;;9.10;4.30;;;;;;;8.38;64.76;100222.56;6156815;23;20289;-86
2022/03/28 04:37:01;;;;;;;11.40;4.50;;;;;;;8.45;64.61;100218.88;6156842;23;20163;-87
2022/03/28 04:39:26;;;;;;;4.83;2.83;;;;;;;8.53;64.51;100219.53;6156842;23;20227;-87
2022/03/28 04:41:51;;;;;;;10.37;4.57;;;;;;;8.55;64.72;100223.81;6130685;23;20178;-87
2022/03/28 04:44:17;;;;;;;7.17;3.30;;;;;;;8.53;64.92;100232.59;6156452;23;20523;-87
2022/03/28 04:46:42;;;;;;;11.80;5.17;;;;;;;8.57;65.08;100235.06;6130596;23;20189;-86
2022/03/28 04:49:10;;;;;;;10.67;4.30;;;;;;;8.65;65.07;100232.25;6130634;23;20183;-87
2022/03/28 04:51:36;;;;;;;15.20;5.70;;;;;;;8.76;64.53;100240.66;6156310;23;20568;-86
2022/03/28 04:54:01;;;;;;;13.67;4.43;;;;;;;8.77;64.49;100237.16;6130570;23;20235;-86
2022/03/28 04:56:27;;;;;;;7.63;4.60;;;;;;;8.85;64.66;100229.97;6156372;23;20477;-86
2022/03/28 04:58:52;;;;;;;11.00;4.13;;;;;;;9.02;64.06;100229.47;6130663;23;20174;-86
2022/03/28 05:01:17;;;;;;;14.53;4.90;;;;;;;9.07;63.92;100227.56;6156221;23;20470;-86
2022/03/28 05:03:43;;;;;;;11.33;4.60;;;;;;;9.06;64.42;100237.19;6156601;23;20234;-86
2022/03/28 05:06:08;;;;;;;12.83;5.23;;;;;;;9.11;64.29;100237.91;6130450;23;20203;-87
2022/03/28 05:08:34;;;;;;;13.90;5.03;;;;;;;9.12;63.67;100237.00;6156218;23;20217;-86
2022/03/28 05:10:59;;;;;;;13.40;5.47;;;;;;;9.21;63.37;100236.75;6156571;23;20151;-86
2022/03/28 05:13:25;;;;;;;16.70;5.43;;;;;;;9.29;63.74;100241.75;6156192;23;20155;-86
2022/03/28 05:15:51;;;;;;;12.53;6.00;;;;;;;9.39;63.38;100242.31;6130384;23;20179;-87
2022/03/28 05:18:16;;;;;;;23.13;5.03;;;;;;;9.52;62.77;100239.28;6156163;23;20217;-86
2022/03/28 05:20:42;;;;;;;9.80;4.20;;;;;;;9.74;63.02;100236.88;6131368;23;20214;-86
2022/03/28 05:23:07;;;;;;;10.27;4.87;;;;;;;10.15;62.55;100249.50;6156388;23;20151;-87
2022/03/28 05:25:32;;;;;;;15.93;5.43;;;;;;;10.75;61.06;100245.69;6155118;23;20590;-86
2022/03/28 05:27:58;;;;;;;13.63;5.73;;;;;;;11.22;59.12;100243.94;6156408;23;20170;-86
2022/03/28 05:30:23;;;;;;;7.60;4.00;;;;;;;11.64;58.49;100240.53;6131692;23;20155;-87
2022/03/28 05:32:49;;;;;;;13.40;4.73;;;;;;;12.27;57.53;100238.84;6130609;23;20221;-87
2022/03/28 05:35:15;;;;;;;9.57;3.60;;;;;;;12.68;55.98;100239.75;6130256;23;20190;-86
2022/03/28 05:37:41;;;;;;;10.77;3.37;;;;;;;12.91;53.55;100242.22;6155859;23;20166;-86
2022/03/28 05:40:11;;;;;;;7.90;3.57;;;;;;;13.01;52.54;100242.63;6155980;23;20210;-87
2022/03/28 05:42:36;;;;;;;8.73;3.13;;;;;;;12.90;52.95;100251.88;6156318;23;20178;-87
2022/03/28 05:45:03;;;;;;;8.33;3.70;;;;;;;13.17;52.49;100246.34;6156241;23;20601;-86
2022/03/28 05:47:28;;;;;;;11.37;2.97;;;;;;;13.35;51.19;100245.47;6130113;23;20230;-85
2022/03/28 05:49:54;;;;;;;10.33;3.87;;;;;;;13.34;48.18;100238.50;6130238;23;20481;-85
2022/03/28 05:52:19;;;;;;;8.17;3.40;;;;;;;13.35;47.52;100248.97;6155861;23;20580;-86
2022/03/28 05:54:45;;;;;;;8.20;4.07;;;;;;;13.43;47.02;100238.94;6130444;23;20190;-86
2022/03/28 05:57:10;;;;;;;12.20;3.60;;;;;;;13.08;46.23;100237.06;6156475;23;20143;-86
2022/03/28 05:59:36;;;;;;;10.90;3.53;;;;;;;13.21;45.17;100247.88;6156121;23;20155;-85
2022/03/28 06:02:02;;;;;;;5.93;2.77;;;;;;;12.69;46.01;100255.44;6156184;23;20174;-86
2022/03/28 06:04:28;;;;;;;6.77;2.87;;;;;;;12.94;46.45;100248.16;6130018;23;20621;-86
2022/03/28 06:06:53;;;;;;;5.47;2.77;;;;;;;13.10;45.44;100242.28;6154497;23;20245;-87
2022/03/28 06:09:18;;;;;;;10.63;3.50;;;;;;;12.93;46.14;100250.88;6130008;23;20190;-86
2022/03/28 06:11:44;;;;;;;6.53;3.13;;;;;;;13.27;46.55;100244.97;6155712;23;20482;-86
2022/03/28 06:14:10;;;;;;;6.00;3.27;;;;;;;13.03;45.11;100252.19;6155700;23;20151;-85
2022/03/28 06:16:36;;;;;;;9.57;2.87;;;;;;;13.38;45.46;100250.63;6155689;23;20213;-86
2022/03/28 06:19:02;;;;;;;11.47;3.60;;;;;;;13.71;44.86;100242.88;6156006;23;20147;-86
2022/03/28 06:21:30;;;;;;;6.70;2.80;;;;;;;14.06;43.18;100242.06;6156018;23;20461;-86
2022/03/28 06:23:59;;;;;;;13.70;4.63;;;;;;;14.53;43.78;100247.63;6155910;23;20226;-87
2022/03/28 06:26:24;;;;;;;7.50;3.33;;;;;;;15.05;42.04;100236.03;6155492;23;20179;-86
2022/03/28 06:28:50;;;;;;;9.87;3.30;;;;;;;15.73;40.68;100239.38;6155599;23;20151;-86
2022/03/28 06:31:16;;;;;;;6.80;3.23;;;;;;;16.81;39.74;100228.63;6155619;23;20622;-87
2022/03/28 06:33:41;;;;;;;7.73;3.03;;;;;;;17.12;37.32;100233.75;6155621;23;20159;-85
2022/03/28 06:36:08;;;;;;;4.63;2.27;;;;;;;17.45;37.90;100238.75;6155767;23;20183;-87
2022/03/28 06:38:34;;;;;;;7.40;2.83;;;;;;;18.39;36.64;100230.78;6155989;23;20551;-87
2022/03/28 06:40:59;;;;;;;12.43;3.50;;;;;;;18.44;34.68;100241.94;6155525;23;20158;-86
2022/03/28 06:43:25;;;;;;;6.73;2.80;;;;;;;18.23;35.11;100248.66;6156187;23;20154;-87
2022/03/28 06:45:51;;;;;;;6.60;2.97;;;;;;;18.31;35.50;100238.41;6130064;23;20490;-87
2022/03/28 06:48:17;;;;;;;8.63;3.87;;;;;;;18.18;35.62;100242.81;6155895;23;20161;-86
2022/03/28 06:50:43;;;;;;;7.93;3.00;;;;;;;18.65;36.81;100242.31;6130738;23;20162;-87
2022/03/28 06:53:09;;;;;;;5.93;2.80;;;;;;;18.86;35.76;100240.84;6155498;23;20596;-86
2022/03/28 06:55:34;;;;;;;5.20;2.83;;;;;;;18.90;34.82;100243.19;6155479;23;20147;-88
2022/03/28 06:58:00;;;;;;;7.83;2.90;;;;;;;18.55;34.31;100239.44;6129745;23;20159;-87
2022/03/28 07:00:25;;;;;;;5.77;2.53;;;;;;;18.40;36.70;100230.66;6130059;23;20155;-87
2022/03/28 07:02:51;;;;;;;5.23;2.50;;;;;;;18.91;35.09;100230.75;6129775;23;20166;-85
2022/03/28 07:05:17;;;;;;;5.43;2.37;;;;;;;19.23;33.76;100237.31;6155805;23;20481;-89
2022/03/28 07:07:44;;;;;;;6.93;3.33;;;;;;;19.01;34.67;100230.00;6129544;23;20624;-87
2022/03/28 07:10:11;;;;;;;7.13;3.27;;;;;;;19.31;34.75;100234.13;6129765;23;20236;-88
2022/03/28 07:12:38;;;;;;;6.03;3.00;;;;;;;19.32;34.74;100233.16;6155416;23;20148;-86
2022/03/28 07:15:04;;;;;;;8.93;2.50;;;;;;;19.43;35.39;100233.28;6155366;23;20158;-88
2022/03/28 07:17:30;;;;;;;5.90;2.47;;;;;;;19.71;34.76;100227.66;6155262;23;20518;-88
2022/03/28 07:19:55;;;;;;;6.50;2.70;;;;;;;19.44;33.61;100225.16;6155343;23;20209;-87
2022/03/28 07:22:21;;;;;;;9.93;3.77;;;;;;;18.84;34.81;100225.00;6155696;23;20240;-88
2022/03/28 07:24:46;;;;;;;5.00;2.63;;;;;;;18.95;34.80;100229.56;6130861;23;20158;-88
2022/03/28 07:27:12;;;;;;;7.80;3.90;;;;;;;18.68;35.60;100231.50;6131378;23;20179;-88
2022/03/28 07:29:38;;;;;;;5.63;3.17;;;;;;;18.53;35.82;100230.72;6157122;23;20160;-87
2022/03/28 07:32:04;;;;;;;8.33;3.07;;;;;;;18.36;36.64;100230.97;6157725;23;20180;-89
2022/03/28 07:34:30;;;;;;;12.63;2.87;;;;;;;18.59;37.05;100230.31;6157114;23;20148;-89
2022/03/28 07:37:02;;;;;;;8.47;2.63;;;;;;;18.55;35.99;100226.16;6150765;23;20163;-87
2022/03/28 07:39:28;;;;;;;6.07;2.00;;;;;;;17.90;36.99;100230.50;6127876;23;20159;-88
2022/03/28 07:41:54;;;;;;;6.47;2.97;;;;;;;17.60;37.09;100228.03;6127514;23;20222;-87
2022/03/28 07:44:20;;;;;;;5.87;2.93;;;;;;;17.98;38.25;100236.16;6127522;23;20157;-89
2022/03/28 07:46:46;;;;;;;7.33;3.20;;;;;;;18.34;39.00;100225.75;6127417;23;20562;-89
2022/03/28 07:49:12;;;;;;;5.20;2.53;;;;;;;18.47;36.31;100222.28;6127443;23;20638;-87
2022/03/28 07:51:38;;;;;;;3.87;2.50;;;;;;;18.39;37.03;100228.13;6150856;23;20158;-87
2022/03/28 07:54:04;;;;;;;4.00;2.00;;;;;;;18.53;36.91;100225.41;6128117;23;20177;-88
2022/03/28 07:56:31;;;;;;;9.70;2.87;;;;;;;18.75;37.20;100225.66;6126214;23;20179;-89
2022/03/28 07:58:57;;;;;;;6.63;3.00;;;;;;;18.88;37.59;100229.16;6127371;23;20173;-89
2022/03/28 08:01:23;;;;;;;6.03;2.77;;;;;;;18.61;36.83;100227.53;6127362;23;20154;-89
2022/03/28 08:03:49;;;;;;;8.77;3.73;;;;;;;18.62;37.78;100219.47;6126126;23;20210;-89
2022/03/28 08:06:14;;;;;;;14.43;2.63;;;;;;;18.55;38.78;100220.84;6127250;23;20265;-89
2022/03/28 08:08:40;;;;;;;6.87;2.87;;;;;;;18.71;38.35;100218.00;6127921;23;20639;-88
2022/03/28 08:11:07;;;;;;;5.67;2.87;;;;;;;18.86;37.65;100209.81;6127237;23;20610;-87
2022/03/28 08:13:33;;;;;;;5.93;3.37;;;;;;;18.85;37.60;100210.75;6127223;23;20150;-88
2022/03/28 08:15:59;;;;;;;11.13;3.23;;;;;;;18.63;38.09;100215.84;6127207;23;20467;-89
2022/03/28 08:18:26;;;;;;;5.93;2.77;;;;;;;18.89;37.12;100214.06;6150550;23;20159;-90
2022/03/28 08:20:52;;;;;;;5.93;3.27;;;;;;;19.00;37.42;100208.84;6150953;23;20509;-88
2022/03/28 08:23:20;;;;;;;9.00;2.50;;;;;;;19.11;37.71;100200.97;6127136;23;20214;-86
2022/03/28 08:25:47;;;;;;;9.30;3.20;;;;;;;18.64;38.40;100209.59;6126996;23;20150;-88
2022/03/28 08:28:12;;;;;;;8.90;4.00;;;;;;;18.15;38.09;100204.06;6127039;23;20154;-89
2022/03/28 08:30:38;;;;;;;7.37;2.53;;;;;;;18.51;39.25;100210.53;6125867;23;20236;-88
2022/03/28 08:33:03;;;;;;;7.90;3.03;;;;;;;18.84;38.25;100198.44;6127273;23;20284;-89
2022/03/28 08:35:29;;;;;;;5.13;2.37;;;;;;;18.91;36.82;100191.75;6127305;23;20150;-88
2022/03/28 08:37:54;;;;;;;5.37;3.17;;;;;;;18.84;37.00;100193.13;6150260;23;20167;-88
2022/03/28 08:43:09;;;;;;;10.00;3.63;;;;;;;19.25;36.79;100184.88;6111496;23;20515;-88
2022/03/28 08:46:34;;;;;;;6.30;3.60;;;;;;;19.07;36.54;100172.06;6125757;23;20170;-91
2022/03/28 08:52:38;;;;;;;7.80;2.87;;;;;;;19.53;37.13;100154.50;6116162;23;20247;-90
2022/03/28 08:55:05;;;;;;;4.63;2.57;;;;;;;19.72;35.25;100151.34;6150265;23;20163;-89
2022/03/28 08:57:47;;;;;;;6.03;2.93;;;;;;;19.41;36.06;100145.63;6126701;23;20486;-89
2022/03/28 09:04:15;;;;;;;;;;;;;;;;;;;;;
2022/03/28 09:06:52;;;;;;;6.67;2.77;;;;;;;19.93;36.63;100131.13;6127593;23;20244;-92
2022/03/28 09:09:31;;;;;;;8.47;2.77;;;;;;;19.97;36.26;100132.59;6126935;23;20568;-88
2022/03/28 09:12:08;;;;;;;7.03;3.63;;;;;;;20.15;35.84;100126.72;6125503;23;20527;-88
2022/03/28 09:14:37;;;;;;;6.57;3.17;;;;;;;19.72;36.05;100127.41;6125581;23;20227;-88
2022/03/28 09:17:33;;;;;;;18.57;3.73;;;;;;;19.93;36.04;100118.69;6126827;23;20168;-90
2022/03/28 09:20:44;;;;;;;7.63;3.00;;;;;;;19.98;36.56;100119.19;6120770;23;20165;-92
2022/03/28 09:23:38;;;;;;;5.53;2.03;;;;;;;20.06;36.36;100108.81;6105144;23;20595;-89
2022/03/28 09:26:22;;;;;;;;;;;;;;;;;;;;;
2022/03/28 09:28:54;;;;;;;8.07;2.97;;;;;;;20.48;36.95;100101.16;6127535;23;20235;-89
2022/03/28 09:31:20;;;;;;;7.07;2.83;;;;;;;20.69;35.46;100091.47;6127235;23;20140;-89
2022/03/28 09:34:11;;;;;;;6.63;3.03;;;;;;;20.89;34.65;100090.75;6149935;23;20163;-91
2022/03/28 09:36:48;;;;;;;6.73;2.67;;;;;;;21.16;35.44;100080.56;6149642;23;20481;-89
2022/03/28 09:39:33;;;;;;;7.40;2.63;;;;;;;21.17;34.56;100074.25;6125624;23;20187;-90
2022/03/28 09:42:18;;;;;;;6.87;3.30;;;;;;;21.13;34.42;100080.81;6127168;23;20139;-91
2022/03/28 09:44:48;;;;;;;9.13;2.87;;;;;;;21.03;33.77;100074.50;6127118;23;20223;-89
2022/03/28 09:47:41;;;;;;;4.17;2.50;;;;;;;21.37;35.19;100068.16;6150247;23;20596;-91
2022/03/28 09:50:38;;;;;;;3.90;2.10;;;;;;;21.70;33.70;100072.50;6112863;23;20167;-91
2022/03/28 09:55:02;;;;;;;7.37;2.97;;;;;;;21.58;33.37;100060.19;6126195;23;20242;-92
2022/03/28 09:58:15;;;;;;;7.00;2.63;;;;;;;21.46;33.66;100057.69;6025602;23;20169;-90
2022/03/28 10:05:02;;;;;;;6.07;3.00;;;;;;;21.79;32.60;100038.84;5953729;24;20162;-91
2022/03/28 10:07:30;;;;;;;6.87;2.30;;;;;;;21.86;32.81;100035.56;5951186;23;20705;-90
2022/03/28 10:10:10;;;;;;;7.77;3.07;;;;;;;21.78;32.71;100031.81;6066376;23;20145;-91
2022/03/28 10:19:23;;;;;;;9.83;4.33;;;;;;;22.30;32.66;100007.69;6066876;23;20149;-90
2022/03/28 10:21:50;;;;;;;5.53;2.70;;;;;;;22.38;32.67;100001.72;6042293;23;20168;-88
2022/03/28 10:25:18;;;;;;;;;;;;;;;;;;;;;
2022/03/28 10:27:55;;;;;;;5.57;2.90;;;;;;;22.18;32.60;99997.25;6053513;23;20262;-91
2022/03/28 10:37:24;;;;;;;5.13;2.73;;;;;;;22.53;31.78;99966.47;5898495;24;20185;-92
2022/03/28 10:39:49;;;;;;;9.97;3.13;;;;;;;22.63;31.93;99958.50;5930135;24;20164;-89
2022/03/28 10:53:41;;;;;;;;;;;;;;;;;;;;;
2022/03/28 10:57:07;;;;;;;10.57;3.23;;;;;;;22.99;32.54;99935.63;5997391;23;20173;-91
2022/03/28 11:16:52;;;;;;;6.43;3.33;;;;;;;23.12;31.51;99904.94;5955112;24;20574;-91
2022/03/28 11:29:32;;;;;;;6.73;2.90;;;;;;;23.30;30.18;99864.94;5913922;24;20664;-91
2022/03/28 11:46:35;;;;;;;8.00;3.33;;;;;;;23.69;29.98;99837.09;5932643;23;20263;-91
2022/03/28 11:55:33;;;;;;;9.43;4.23;;;;;;;23.27;29.70;99811.72;6131414;23;20657;-89
2022/03/28 12:02:06;;;;;;;;;;;;;;;;;;;;;
2022/03/28 12:08:28;;;;;;;9.20;4.53;;;;;;;23.21;30.44;99790.91;5904629;24;20213;-89
2022/03/28 12:15:37;;;;;;;;;;;;;;;;;;;;;
2022/03/28 12:39:08;;;;;;;11.33;5.33;;;;;;;23.97;30.14;99751.44;6137591;22;2056108;-90
2022/03/28 12:45:51;;;;;;;9.53;4.50;;;;;;;24.10;29.82;99739.41;6131561;23;20155;-91
2022/03/28 12:48:21;;;;;;;11.83;5.47;;;;;;;24.09;30.34;99751.09;6073332;23;20187;-90
2022/03/28 12:54:32;;;;;;;9.93;4.97;;;;;;;24.38;29.82;99732.97;6090846;23;20238;-92
2022/03/28 13:00:29;;;;;;;8.83;4.30;;;;;;;24.68;28.95;99725.53;6044696;23;20212;-93
2022/03/28 13:17:16;;;;;;;9.13;4.00;;;;;;;25.00;28.83;99701.63;6030794;23;20198;-92
2022/03/28 13:20:21;;;;;;;8.87;3.83;;;;;;;24.86;28.73;99694.19;6078267;23;20156;-92
2022/03/28 13:23:03;;;;;;;11.97;4.50;;;;;;;24.78;29.18;99689.59;6072935;23;20206;-90
2022/03/28 13:25:42;;;;;;;7.13;4.13;;;;;;;24.70;28.78;99686.00;6103186;23;20537;-92
2022/03/28 13:35:56;;;;;;;6.40;4.00;;;;;;;24.12;30.07;99674.94;6035541;23;20637;-91
2022/03/28 13:38:39;;;;;;;;;;;;;;;;;;;;;
2022/03/28 13:42:00;;;;;;;;;;;;;;;;;;;;;
2022/03/28 13:45:24;;;;;;;;;;;;;;;;;;;;;
2022/03/28 13:47:50;;;;;;;11.80;3.77;;;;;;;24.79;29.51;99643.00;6074437;23;20228;-91
2022/03/28 13:50:27;;;;;;;;;;;;;;;;;;;;;
2022/03/28 13:53:26;;;;;;;;;;;;;;;;;;;;;
2022/03/28 13:56:15;;;;;;;8.80;3.13;;;;;;;24.88;29.18;99625.97;6095794;23;20239;-93
2022/03/28 13:58:41;;;;;;;8.17;4.00;;;;;;;24.43;28.70;99636.88;6095970;23;20200;-91
2022/03/28 14:01:33;;;;;;;6.77;3.27;;;;;;;24.02;29.34;99634.84;6095702;23;20160;-95
2022/03/28 14:04:25;;;;;;;5.30;3.03;;;;;;;23.82;29.69;99636.81;6092694;23;20557;-92
2022/03/28 14:06:50;;;;;;;5.60;3.17;;;;;;;23.73;29.67;99631.53;6177075;23;20165;-90
2022/03/28 14:09:22;;;;;;;5.60;2.83;;;;;;;23.75;30.03;99629.53;6186254;23;20225;-92
2022/03/28 14:12:30;;;;;;;6.10;3.10;;;;;;;23.68;30.40;99626.63;6185064;23;20177;-91
2022/03/28 14:14:58;;;;;;;6.03;3.03;;;;;;;23.57;29.85;99626.84;6182255;23;20186;-88
2022/03/28 14:17:29;;;;;;;8.30;3.53;;;;;;;23.26;30.16;99628.13;6184843;23;20678;-92
2022/03/28 14:19:55;;;;;;;11.07;3.77;;;;;;;23.35;30.31;99623.72;6185420;23;20150;-88
2022/03/28 14:22:24;;;;;;;5.87;3.07;;;;;;;23.43;30.69;99619.31;6186000;23;20154;-92
2022/03/28 14:25:11;;;;;;;5.20;2.83;;;;;;;23.40;30.87;99618.81;6185052;23;20161;-93
2022/03/28 14:27:39;;;;;;;7.07;3.33;;;;;;;23.08;30.71;99614.72;6185767;23;20150;-91
2022/03/28 14:33:47;;;;;;;7.77;3.43;;;;;;;23.17;31.07;99605.78;6059716;23;20182;-91
2022/03/28 14:36:12;;;;;;;9.40;3.53;;;;;;;22.72;31.99;99601.34;6072413;23;20646;-89